sensor_id;sensor_type;location;lat;lon;timestamp;P1;durP1;ratioP1;P2;durP2;ratioP2
74100;SDS011;62462;52.530;21.682;2023-12-29T00:00:34;18.65;;;7.95;;
74100;SDS011;62462;52.530;21.682;2023-12-29T00:03:00;16.60;;;8.40;;
74100;SDS011;62462;52.530;21.682;2023-12-29T00:05:26;18.63;;;8.38;;
74100;SDS011;62462;52.530;21.682;2023-12-29T00:07:52;15.32;;;7.20;;
74100;SDS011;62462;52.530;21.682;2023-12-29T00:10:18;15.80;;;7.15;;
74100;SDS011;62462;52.530;21.682;2023-12-29T00:12:43;16.08;;;7.47;;
74100;SDS011;62462;52.530;21.682;2023-12-29T00:15:09;17.10;;;6.95;;
74100;SDS011;62462;52.530;21.682;2023-12-29T00:17:35;15.00;;;7.20;;
74100;SDS011;62462;52.530;21.682;2023-12-29T00:20:05;13.88;;;6.95;;
74100;SDS011;62462;52.530;21.682;2023-12-29T00:22:33;14.60;;;7.22;;
74100;SDS011;62462;52.530;21.682;2023-12-29T00:24:59;15.55;;;7.75;;
74100;SDS011;62462;52.530;21.682;2023-12-29T00:27:24;15.82;;;7.38;;
74100;SDS011;62462;52.530;21.682;2023-12-29T00:29:50;13.55;;;7.20;;
74100;SDS011;62462;52.530;21.682;2023-12-29T00:32:16;16.65;;;7.53;;
74100;SDS011;62462;52.530;21.682;2023-12-29T00:34:42;16.25;;;7.72;;
74100;SDS011;62462;52.530;21.682;2023-12-29T00:37:07;19.17;;;7.95;;
74100;SDS011;62462;52.530;21.682;2023-12-29T00:39:33;15.88;;;7.65;;
74100;SDS011;62462;52.530;21.682;2023-12-29T00:42:04;14.90;;;7.15;;
74100;SDS011;62462;52.530;21.682;2023-12-29T00:44:31;15.48;;;7.07;;
74100;SDS011;62462;52.530;21.682;2023-12-29T00:46:58;13.75;;;6.30;;
74100;SDS011;62462;52.530;21.682;2023-12-29T00:49:25;12.88;;;6.78;;
74100;SDS011;62462;52.530;21.682;2023-12-29T00:51:50;13.55;;;6.72;;
74100;SDS011;62462;52.530;21.682;2023-12-29T00:54:16;14.25;;;6.78;;
74100;SDS011;62462;52.530;21.682;2023-12-29T00:56:47;15.10;;;6.40;;
74100;SDS011;62462;52.530;21.682;2023-12-29T00:59:14;16.73;;;6.53;;
74100;SDS011;62462;52.530;21.682;2023-12-29T01:01:39;16.83;;;7.35;;
74100;SDS011;62462;52.530;21.682;2023-12-29T01:04:05;14.45;;;6.70;;
74100;SDS011;62462;52.530;21.682;2023-12-29T01:06:30;16.33;;;6.55;;
74100;SDS011;62462;52.530;21.682;2023-12-29T01:08:56;13.27;;;6.72;;
74100;SDS011;62462;52.530;21.682;2023-12-29T01:11:22;14.35;;;6.90;;
74100;SDS011;62462;52.530;21.682;2023-12-29T01:13:48;15.15;;;7.53;;
74100;SDS011;62462;52.530;21.682;2023-12-29T01:16:13;17.52;;;6.68;;
74100;SDS011;62462;52.530;21.682;2023-12-29T01:18:39;13.98;;;7.53;;
74100;SDS011;62462;52.530;21.682;2023-12-29T01:21:05;13.63;;;6.57;;
74100;SDS011;62462;52.530;21.682;2023-12-29T01:23:30;13.77;;;6.75;;
74100;SDS011;62462;52.530;21.682;2023-12-29T01:25:56;14.18;;;6.75;;
74100;SDS011;62462;52.530;21.682;2023-12-29T01:28:21;15.40;;;7.00;;
74100;SDS011;62462;52.530;21.682;2023-12-29T01:30:47;13.48;;;6.80;;
74100;SDS011;62462;52.530;21.682;2023-12-29T01:33:13;12.90;;;6.78;;
74100;SDS011;62462;52.530;21.682;2023-12-29T01:35:38;10.52;;;6.28;;
74100;SDS011;62462;52.530;21.682;2023-12-29T01:38:04;14.98;;;6.35;;
74100;SDS011;62462;52.530;21.682;2023-12-29T01:40:30;13.82;;;6.22;;
74100;SDS011;62462;52.530;21.682;2023-12-29T01:42:55;14.77;;;6.93;;
74100;SDS011;62462;52.530;21.682;2023-12-29T01:45:22;13.82;;;6.57;;
74100;SDS011;62462;52.530;21.682;2023-12-29T01:47:49;17.63;;;6.95;;
74100;SDS011;62462;52.530;21.682;2023-12-29T01:50:17;13.75;;;6.38;;
74100;SDS011;62462;52.530;21.682;2023-12-29T01:52:44;13.73;;;7.10;;
74100;SDS011;62462;52.530;21.682;2023-12-29T01:55:12;14.43;;;6.32;;
74100;SDS011;62462;52.530;21.682;2023-12-29T01:57:42;14.05;;;6.60;;
74100;SDS011;62462;52.530;21.682;2023-12-29T02:00:08;12.20;;;6.40;;
74100;SDS011;62462;52.530;21.682;2023-12-29T02:02:38;14.73;;;6.97;;
74100;SDS011;62462;52.530;21.682;2023-12-29T02:05:04;14.05;;;7.18;;
74100;SDS011;62462;52.530;21.682;2023-12-29T02:07:30;15.40;;;6.75;;
74100;SDS011;62462;52.530;21.682;2023-12-29T02:09:57;13.02;;;7.32;;
74100;SDS011;62462;52.530;21.682;2023-12-29T02:12:24;11.95;;;6.50;;
74100;SDS011;62462;52.530;21.682;2023-12-29T02:14:50;13.88;;;6.15;;
74100;SDS011;62462;52.530;21.682;2023-12-29T02:17:20;12.65;;;6.40;;
74100;SDS011;62462;52.530;21.682;2023-12-29T02:19:51;12.88;;;6.63;;
74100;SDS011;62462;52.530;21.682;2023-12-29T02:22:17;14.82;;;7.03;;
74100;SDS011;62462;52.530;21.682;2023-12-29T02:24:47;12.35;;;6.72;;
74100;SDS011;62462;52.530;21.682;2023-12-29T02:32:38;13.68;;;6.57;;
74100;SDS011;62462;52.530;21.682;2023-12-29T02:35:06;15.63;;;6.70;;
74100;SDS011;62462;52.530;21.682;2023-12-29T02:37:36;16.40;;;7.60;;
74100;SDS011;62462;52.530;21.682;2023-12-29T02:40:04;13.73;;;7.03;;
74100;SDS011;62462;52.530;21.682;2023-12-29T02:42:30;14.63;;;6.85;;
74100;SDS011;62462;52.530;21.682;2023-12-29T02:44:56;15.38;;;7.25;;
74100;SDS011;62462;52.530;21.682;2023-12-29T02:47:21;16.10;;;7.45;;
74100;SDS011;62462;52.530;21.682;2023-12-29T02:49:47;15.73;;;6.85;;
74100;SDS011;62462;52.530;21.682;2023-12-29T02:52:14;14.40;;;7.40;;
74100;SDS011;62462;52.530;21.682;2023-12-29T02:54:40;14.70;;;7.40;;
74100;SDS011;62462;52.530;21.682;2023-12-29T02:57:06;15.88;;;7.68;;
74100;SDS011;62462;52.530;21.682;2023-12-29T02:59:31;15.65;;;7.47;;
74100;SDS011;62462;52.530;21.682;2023-12-29T03:01:57;16.65;;;7.57;;
74100;SDS011;62462;52.530;21.682;2023-12-29T03:04:23;16.33;;;7.75;;
74100;SDS011;62462;52.530;21.682;2023-12-29T03:06:48;17.88;;;7.78;;
74100;SDS011;62462;52.530;21.682;2023-12-29T03:09:14;14.35;;;7.53;;
74100;SDS011;62462;52.530;21.682;2023-12-29T03:11:40;16.70;;;7.90;;
74100;SDS011;62462;52.530;21.682;2023-12-29T03:14:05;16.23;;;8.57;;
74100;SDS011;62462;52.530;21.682;2023-12-29T03:16:31;15.88;;;7.57;;
74100;SDS011;62462;52.530;21.682;2023-12-29T03:18:57;15.88;;;7.88;;
74100;SDS011;62462;52.530;21.682;2023-12-29T03:21:22;15.77;;;7.85;;
74100;SDS011;62462;52.530;21.682;2023-12-29T03:23:48;18.05;;;8.23;;
74100;SDS011;62462;52.530;21.682;2023-12-29T03:26:14;15.13;;;7.50;;
74100;SDS011;62462;52.530;21.682;2023-12-29T03:28:40;15.98;;;8.07;;
74100;SDS011;62462;52.530;21.682;2023-12-29T03:31:06;16.15;;;8.23;;
74100;SDS011;62462;52.530;21.682;2023-12-29T03:33:31;16.50;;;7.93;;
74100;SDS011;62462;52.530;21.682;2023-12-29T03:35:57;15.07;;;7.70;;
74100;SDS011;62462;52.530;21.682;2023-12-29T03:38:23;13.70;;;7.88;;
74100;SDS011;62462;52.530;21.682;2023-12-29T03:40:48;15.27;;;8.02;;
74100;SDS011;62462;52.530;21.682;2023-12-29T03:43:14;17.63;;;8.02;;
74100;SDS011;62462;52.530;21.682;2023-12-29T03:45:40;17.67;;;8.38;;
74100;SDS011;62462;52.530;21.682;2023-12-29T03:48:05;16.27;;;7.93;;
74100;SDS011;62462;52.530;21.682;2023-12-29T03:50:33;15.48;;;7.93;;
74100;SDS011;62462;52.530;21.682;2023-12-29T03:52:59;16.20;;;8.30;;
74100;SDS011;62462;52.530;21.682;2023-12-29T03:55:25;16.27;;;7.75;;
74100;SDS011;62462;52.530;21.682;2023-12-29T03:57:50;17.08;;;8.32;;
74100;SDS011;62462;52.530;21.682;2023-12-29T04:00:16;18.55;;;8.02;;
74100;SDS011;62462;52.530;21.682;2023-12-29T04:02:42;16.27;;;7.93;;
74100;SDS011;62462;52.530;21.682;2023-12-29T04:05:11;15.98;;;7.82;;
74100;SDS011;62462;52.530;21.682;2023-12-29T04:07:38;16.83;;;7.97;;
74100;SDS011;62462;52.530;21.682;2023-12-29T04:10:05;16.92;;;8.07;;
74100;SDS011;62462;52.530;21.682;2023-12-29T04:12:32;19.20;;;8.52;;
74100;SDS011;62462;52.530;21.682;2023-12-29T04:14:58;15.93;;;8.43;;
74100;SDS011;62462;52.530;21.682;2023-12-29T04:17:23;17.08;;;8.90;;
74100;SDS011;62462;52.530;21.682;2023-12-29T04:19:49;17.25;;;8.38;;
74100;SDS011;62462;52.530;21.682;2023-12-29T04:22:15;19.23;;;9.35;;
74100;SDS011;62462;52.530;21.682;2023-12-29T04:24:40;17.55;;;8.63;;
74100;SDS011;62462;52.530;21.682;2023-12-29T04:27:06;15.68;;;9.13;;
74100;SDS011;62462;52.530;21.682;2023-12-29T04:29:32;17.10;;;7.90;;
74100;SDS011;62462;52.530;21.682;2023-12-29T04:31:57;18.75;;;9.02;;
74100;SDS011;62462;52.530;21.682;2023-12-29T04:34:23;14.10;;;8.00;;
74100;SDS011;62462;52.530;21.682;2023-12-29T04:36:48;17.48;;;8.57;;
74100;SDS011;62462;52.530;21.682;2023-12-29T04:39:14;17.75;;;8.80;;
74100;SDS011;62462;52.530;21.682;2023-12-29T04:41:40;18.02;;;9.05;;
74100;SDS011;62462;52.530;21.682;2023-12-29T04:44:06;18.50;;;9.50;;
74100;SDS011;62462;52.530;21.682;2023-12-29T04:46:31;15.45;;;8.70;;
74100;SDS011;62462;52.530;21.682;2023-12-29T04:48:57;20.13;;;8.70;;
74100;SDS011;62462;52.530;21.682;2023-12-29T04:51:23;17.95;;;8.75;;
74100;SDS011;62462;52.530;21.682;2023-12-29T04:53:48;19.08;;;9.18;;
74100;SDS011;62462;52.530;21.682;2023-12-29T04:56:14;16.58;;;8.40;;
74100;SDS011;62462;52.530;21.682;2023-12-29T04:58:40;17.88;;;9.23;;
74100;SDS011;62462;52.530;21.682;2023-12-29T05:01:05;17.33;;;9.05;;
74100;SDS011;62462;52.530;21.682;2023-12-29T05:03:33;18.45;;;9.27;;
74100;SDS011;62462;52.530;21.682;2023-12-29T05:05:59;20.45;;;9.98;;
74100;SDS011;62462;52.530;21.682;2023-12-29T05:08:24;22.42;;;10.07;;
74100;SDS011;62462;52.530;21.682;2023-12-29T05:10:50;18.33;;;9.05;;
74100;SDS011;62462;52.530;21.682;2023-12-29T05:13:16;18.27;;;9.68;;
74100;SDS011;62462;52.530;21.682;2023-12-29T05:15:41;20.00;;;10.00;;
74100;SDS011;62462;52.530;21.682;2023-12-29T05:18:07;20.80;;;9.02;;
74100;SDS011;62462;52.530;21.682;2023-12-29T05:20:33;16.20;;;8.63;;
74100;SDS011;62462;52.530;21.682;2023-12-29T05:22:58;22.83;;;9.60;;
74100;SDS011;62462;52.530;21.682;2023-12-29T05:25:24;17.48;;;9.85;;
74100;SDS011;62462;52.530;21.682;2023-12-29T05:27:50;16.08;;;8.82;;
74100;SDS011;62462;52.530;21.682;2023-12-29T05:30:15;18.13;;;8.82;;
74100;SDS011;62462;52.530;21.682;2023-12-29T05:32:41;17.23;;;8.85;;
74100;SDS011;62462;52.530;21.682;2023-12-29T05:35:07;17.23;;;8.95;;
74100;SDS011;62462;52.530;21.682;2023-12-29T05:37:33;16.83;;;8.25;;
74100;SDS011;62462;52.530;21.682;2023-12-29T05:39:58;17.75;;;9.32;;
74100;SDS011;62462;52.530;21.682;2023-12-29T05:42:24;21.48;;;9.57;;
74100;SDS011;62462;52.530;21.682;2023-12-29T05:44:50;17.08;;;9.60;;
74100;SDS011;62462;52.530;21.682;2023-12-29T05:47:17;18.25;;;8.93;;
74100;SDS011;62462;52.530;21.682;2023-12-29T05:49:43;18.35;;;8.82;;
74100;SDS011;62462;52.530;21.682;2023-12-29T05:52:09;20.42;;;10.10;;
74100;SDS011;62462;52.530;21.682;2023-12-29T05:54:34;18.70;;;9.18;;
74100;SDS011;62462;52.530;21.682;2023-12-29T05:57:00;20.52;;;9.77;;
74100;SDS011;62462;52.530;21.682;2023-12-29T05:59:27;18.10;;;9.77;;
74100;SDS011;62462;52.530;21.682;2023-12-29T06:01:52;17.30;;;8.77;;
74100;SDS011;62462;52.530;21.682;2023-12-29T06:04:18;19.30;;;9.65;;
74100;SDS011;62462;52.530;21.682;2023-12-29T06:06:44;16.00;;;9.38;;
74100;SDS011;62462;52.530;21.682;2023-12-29T06:09:11;16.73;;;9.60;;
74100;SDS011;62462;52.530;21.682;2023-12-29T06:11:36;17.38;;;9.40;;
74100;SDS011;62462;52.530;21.682;2023-12-29T06:14:03;18.90;;;9.43;;
74100;SDS011;62462;52.530;21.682;2023-12-29T06:16:29;20.65;;;9.70;;
74100;SDS011;62462;52.530;21.682;2023-12-29T06:18:55;21.60;;;9.50;;
74100;SDS011;62462;52.530;21.682;2023-12-29T06:21:21;16.70;;;9.55;;
74100;SDS011;62462;52.530;21.682;2023-12-29T06:23:47;19.92;;;9.55;;
74100;SDS011;62462;52.530;21.682;2023-12-29T06:26:16;19.85;;;9.88;;
74100;SDS011;62462;52.530;21.682;2023-12-29T06:28:43;19.45;;;10.07;;
74100;SDS011;62462;52.530;21.682;2023-12-29T06:31:09;17.92;;;9.52;;
74100;SDS011;62462;52.530;21.682;2023-12-29T06:33:35;16.60;;;9.13;;
74100;SDS011;62462;52.530;21.682;2023-12-29T06:36:01;24.58;;;10.00;;
74100;SDS011;62462;52.530;21.682;2023-12-29T06:38:27;19.35;;;9.00;;
74100;SDS011;62462;52.530;21.682;2023-12-29T06:40:53;16.77;;;8.90;;
74100;SDS011;62462;52.530;21.682;2023-12-29T06:43:19;17.70;;;9.23;;
74100;SDS011;62462;52.530;21.682;2023-12-29T06:45:44;18.45;;;8.77;;
74100;SDS011;62462;52.530;21.682;2023-12-29T06:48:10;17.60;;;9.43;;
74100;SDS011;62462;52.530;21.682;2023-12-29T06:50:36;19.30;;;9.05;;
74100;SDS011;62462;52.530;21.682;2023-12-29T06:53:04;18.25;;;9.52;;
74100;SDS011;62462;52.530;21.682;2023-12-29T06:55:30;16.98;;;8.88;;
74100;SDS011;62462;52.530;21.682;2023-12-29T06:57:56;17.13;;;9.18;;
74100;SDS011;62462;52.530;21.682;2023-12-29T07:00:22;17.83;;;9.27;;
74100;SDS011;62462;52.530;21.682;2023-12-29T07:02:47;18.95;;;9.95;;
74100;SDS011;62462;52.530;21.682;2023-12-29T07:05:13;19.83;;;9.93;;
74100;SDS011;62462;52.530;21.682;2023-12-29T07:07:39;17.67;;;9.52;;
74100;SDS011;62462;52.530;21.682;2023-12-29T07:10:05;19.27;;;9.25;;
74100;SDS011;62462;52.530;21.682;2023-12-29T07:12:31;19.80;;;9.88;;
74100;SDS011;62462;52.530;21.682;2023-12-29T07:14:57;19.48;;;9.50;;
74100;SDS011;62462;52.530;21.682;2023-12-29T07:17:22;18.77;;;9.73;;
74100;SDS011;62462;52.530;21.682;2023-12-29T07:19:48;20.27;;;9.57;;
74100;SDS011;62462;52.530;21.682;2023-12-29T07:22:15;17.00;;;9.25;;
74100;SDS011;62462;52.530;21.682;2023-12-29T07:24:40;18.45;;;9.18;;
74100;SDS011;62462;52.530;21.682;2023-12-29T07:27:06;20.17;;;10.15;;
74100;SDS011;62462;52.530;21.682;2023-12-29T07:29:33;19.35;;;9.75;;
74100;SDS011;62462;52.530;21.682;2023-12-29T07:31:58;18.65;;;10.25;;
74100;SDS011;62462;52.530;21.682;2023-12-29T07:34:24;18.83;;;9.27;;
74100;SDS011;62462;52.530;21.682;2023-12-29T07:36:50;18.23;;;8.35;;
74100;SDS011;62462;52.530;21.682;2023-12-29T07:39:16;17.38;;;9.30;;
74100;SDS011;62462;52.530;21.682;2023-12-29T07:41:43;20.58;;;9.35;;
74100;SDS011;62462;52.530;21.682;2023-12-29T07:44:11;17.02;;;9.75;;
74100;SDS011;62462;52.530;21.682;2023-12-29T07:46:38;15.75;;;9.05;;
74100;SDS011;62462;52.530;21.682;2023-12-29T07:49:05;18.00;;;8.75;;
74100;SDS011;62462;52.530;21.682;2023-12-29T07:51:31;20.02;;;9.30;;
74100;SDS011;62462;52.530;21.682;2023-12-29T07:53:57;19.17;;;9.52;;
74100;SDS011;62462;52.530;21.682;2023-12-29T07:56:23;17.90;;;9.27;;
74100;SDS011;62462;52.530;21.682;2023-12-29T07:58:49;19.20;;;9.60;;
74100;SDS011;62462;52.530;21.682;2023-12-29T08:01:14;16.20;;;9.35;;
74100;SDS011;62462;52.530;21.682;2023-12-29T08:03:40;17.77;;;9.07;;
74100;SDS011;62462;52.530;21.682;2023-12-29T08:06:06;17.48;;;8.85;;
74100;SDS011;62462;52.530;21.682;2023-12-29T08:08:31;22.08;;;8.70;;
74100;SDS011;62462;52.530;21.682;2023-12-29T08:10:57;20.98;;;9.07;;
74100;SDS011;62462;52.530;21.682;2023-12-29T08:13:23;17.08;;;9.10;;
74100;SDS011;62462;52.530;21.682;2023-12-29T08:15:48;15.43;;;8.98;;
74100;SDS011;62462;52.530;21.682;2023-12-29T08:18:14;16.88;;;8.90;;
74100;SDS011;62462;52.530;21.682;2023-12-29T08:20:40;18.30;;;9.45;;
74100;SDS011;62462;52.530;21.682;2023-12-29T08:23:05;18.95;;;10.13;;
74100;SDS011;62462;52.530;21.682;2023-12-29T08:25:31;17.95;;;8.75;;
74100;SDS011;62462;52.530;21.682;2023-12-29T08:27:58;18.65;;;9.63;;
74100;SDS011;62462;52.530;21.682;2023-12-29T08:30:24;19.88;;;9.80;;
74100;SDS011;62462;52.530;21.682;2023-12-29T08:32:49;17.65;;;9.02;;
74100;SDS011;62462;52.530;21.682;2023-12-29T08:35:15;15.77;;;8.77;;
74100;SDS011;62462;52.530;21.682;2023-12-29T08:37:41;19.83;;;9.57;;
74100;SDS011;62462;52.530;21.682;2023-12-29T08:40:06;20.70;;;9.70;;
74100;SDS011;62462;52.530;21.682;2023-12-29T08:42:33;20.45;;;9.60;;
74100;SDS011;62462;52.530;21.682;2023-12-29T08:44:59;15.65;;;8.80;;
74100;SDS011;62462;52.530;21.682;2023-12-29T08:47:25;20.20;;;9.68;;
74100;SDS011;62462;52.530;21.682;2023-12-29T08:49:51;17.80;;;8.90;;
74100;SDS011;62462;52.530;21.682;2023-12-29T08:52:19;20.08;;;9.88;;
74100;SDS011;62462;52.530;21.682;2023-12-29T08:54:45;18.20;;;9.20;;
74100;SDS011;62462;52.530;21.682;2023-12-29T08:57:11;16.85;;;9.43;;
74100;SDS011;62462;52.530;21.682;2023-12-29T08:59:36;18.55;;;9.23;;
74100;SDS011;62462;52.530;21.682;2023-12-29T09:02:03;14.95;;;8.57;;
74100;SDS011;62462;52.530;21.682;2023-12-29T09:04:28;15.73;;;8.20;;
74100;SDS011;62462;52.530;21.682;2023-12-29T09:06:54;19.38;;;9.60;;
74100;SDS011;62462;52.530;21.682;2023-12-29T09:09:20;16.42;;;9.13;;
74100;SDS011;62462;52.530;21.682;2023-12-29T09:11:46;18.90;;;9.60;;
74100;SDS011;62462;52.530;21.682;2023-12-29T09:14:12;16.90;;;8.48;;
74100;SDS011;62462;52.530;21.682;2023-12-29T09:16:38;14.57;;;8.60;;
74100;SDS011;62462;52.530;21.682;2023-12-29T09:19:05;17.02;;;8.80;;
74100;SDS011;62462;52.530;21.682;2023-12-29T09:21:31;16.42;;;9.02;;
74100;SDS011;62462;52.530;21.682;2023-12-29T09:23:56;20.08;;;10.10;;
74100;SDS011;62462;52.530;21.682;2023-12-29T09:26:23;16.30;;;8.65;;
74100;SDS011;62462;52.530;21.682;2023-12-29T09:28:49;18.13;;;9.52;;
74100;SDS011;62462;52.530;21.682;2023-12-29T09:31:15;16.20;;;8.70;;
74100;SDS011;62462;52.530;21.682;2023-12-29T09:33:40;20.15;;;10.00;;
74100;SDS011;62462;52.530;21.682;2023-12-29T09:36:06;15.63;;;9.00;;
74100;SDS011;62462;52.530;21.682;2023-12-29T09:38:33;19.20;;;8.65;;
74100;SDS011;62462;52.530;21.682;2023-12-29T09:40:59;14.65;;;8.13;;
74100;SDS011;62462;52.530;21.682;2023-12-29T09:43:32;15.70;;;8.35;;
74100;SDS011;62462;52.530;21.682;2023-12-29T09:45:59;18.38;;;8.63;;
74100;SDS011;62462;52.530;21.682;2023-12-29T09:48:26;14.63;;;7.95;;
74100;SDS011;62462;52.530;21.682;2023-12-29T09:50:52;15.15;;;8.40;;
74100;SDS011;62462;52.530;21.682;2023-12-29T09:53:20;15.65;;;8.00;;
74100;SDS011;62462;52.530;21.682;2023-12-29T09:55:48;16.55;;;7.45;;
74100;SDS011;62462;52.530;21.682;2023-12-29T09:58:15;13.75;;;7.07;;
74100;SDS011;62462;52.530;21.682;2023-12-29T10:00:43;18.98;;;8.75;;
74100;SDS011;62462;52.530;21.682;2023-12-29T10:03:11;15.27;;;7.13;;
74100;SDS011;62462;52.530;21.682;2023-12-29T10:05:37;16.25;;;7.75;;
74100;SDS011;62462;52.530;21.682;2023-12-29T10:08:03;13.68;;;7.60;;
74100;SDS011;62462;52.530;21.682;2023-12-29T10:10:33;14.02;;;7.35;;
74100;SDS011;62462;52.530;21.682;2023-12-29T10:13:00;17.42;;;8.30;;
74100;SDS011;62462;52.530;21.682;2023-12-29T10:21:01;11.27;;;6.65;;
74100;SDS011;62462;52.530;21.682;2023-12-29T10:23:49;11.80;;;6.47;;
74100;SDS011;62462;52.530;21.682;2023-12-29T10:26:22;10.82;;;6.50;;
74100;SDS011;62462;52.530;21.682;2023-12-29T10:28:49;10.82;;;5.97;;
74100;SDS011;62462;52.530;21.682;2023-12-29T10:31:15;11.15;;;6.13;;
74100;SDS011;62462;52.530;21.682;2023-12-29T10:33:41;11.48;;;6.40;;
74100;SDS011;62462;52.530;21.682;2023-12-29T10:36:07;11.23;;;5.85;;
74100;SDS011;62462;52.530;21.682;2023-12-29T10:38:34;13.50;;;6.28;;
74100;SDS011;62462;52.530;21.682;2023-12-29T10:41:12;11.15;;;5.60;;
74100;SDS011;62462;52.530;21.682;2023-12-29T10:43:43;15.52;;;6.22;;
74100;SDS011;62462;52.530;21.682;2023-12-29T10:46:12;12.25;;;5.57;;
74100;SDS011;62462;52.530;21.682;2023-12-29T10:48:38;11.00;;;5.60;;
74100;SDS011;62462;52.530;21.682;2023-12-29T10:51:04;10.45;;;5.78;;
74100;SDS011;62462;52.530;21.682;2023-12-29T10:53:31;8.95;;;5.35;;
74100;SDS011;62462;52.530;21.682;2023-12-29T10:55:57;9.90;;;5.70;;
74100;SDS011;62462;52.530;21.682;2023-12-29T10:58:24;10.27;;;5.22;;
74100;SDS011;62462;52.530;21.682;2023-12-29T11:00:57;9.30;;;5.35;;
74100;SDS011;62462;52.530;21.682;2023-12-29T11:03:25;9.40;;;5.15;;
74100;SDS011;62462;52.530;21.682;2023-12-29T11:05:51;9.30;;;4.90;;
74100;SDS011;62462;52.530;21.682;2023-12-29T11:08:27;11.38;;;5.20;;
74100;SDS011;62462;52.530;21.682;2023-12-29T11:10:53;9.35;;;5.00;;
74100;SDS011;62462;52.530;21.682;2023-12-29T11:13:20;10.48;;;5.22;;
74100;SDS011;62462;52.530;21.682;2023-12-29T11:15:46;7.82;;;5.05;;
74100;SDS011;62462;52.530;21.682;2023-12-29T11:18:13;7.75;;;4.60;;
74100;SDS011;62462;52.530;21.682;2023-12-29T11:20:44;9.73;;;4.30;;
74100;SDS011;62462;52.530;21.682;2023-12-29T11:23:11;7.03;;;4.03;;
74100;SDS011;62462;52.530;21.682;2023-12-29T11:25:44;5.47;;;3.40;;
74100;SDS011;62462;52.530;21.682;2023-12-29T11:28:14;8.10;;;3.38;;
74100;SDS011;62462;52.530;21.682;2023-12-29T11:30:40;5.40;;;3.17;;
74100;SDS011;62462;52.530;21.682;2023-12-29T11:33:07;6.53;;;3.50;;
74100;SDS011;62462;52.530;21.682;2023-12-29T11:41:05;5.53;;;3.42;;
74100;SDS011;62462;52.530;21.682;2023-12-29T11:43:43;6.72;;;3.05;;
74100;SDS011;62462;52.530;21.682;2023-12-29T11:46:55;5.95;;;3.50;;
74100;SDS011;62462;52.530;21.682;2023-12-29T11:49:01;6.97;;;3.50;;
74100;SDS011;62462;52.530;21.682;2023-12-29T11:51:29;9.35;;;3.35;;
74100;SDS011;62462;52.530;21.682;2023-12-29T11:54:05;6.63;;;3.45;;
74100;SDS011;62462;52.530;21.682;2023-12-29T11:56:36;7.53;;;3.50;;
74100;SDS011;62462;52.530;21.682;2023-12-29T12:01:50;5.78;;;3.30;;
74100;SDS011;62462;52.530;21.682;2023-12-29T12:04:41;6.63;;;3.25;;
74100;SDS011;62462;52.530;21.682;2023-12-29T12:09:47;7.20;;;3.17;;
74100;SDS011;62462;52.530;21.682;2023-12-29T12:18:01;6.88;;;3.50;;
74100;SDS011;62462;52.530;21.682;2023-12-29T12:20:34;6.88;;;3.28;;
74100;SDS011;62462;52.530;21.682;2023-12-29T12:23:01;4.80;;;3.35;;
74100;SDS011;62462;52.530;21.682;2023-12-29T12:25:31;7.13;;;2.97;;
74100;SDS011;62462;52.530;21.682;2023-12-29T12:28:00;5.45;;;2.78;;
74100;SDS011;62462;52.530;21.682;2023-12-29T12:30:30;5.28;;;3.33;;
74100;SDS011;62462;52.530;21.682;2023-12-29T12:33:02;4.82;;;3.15;;
74100;SDS011;62462;52.530;21.682;2023-12-29T12:35:29;5.22;;;3.10;;
74100;SDS011;62462;52.530;21.682;2023-12-29T12:38:14;8.10;;;3.60;;
74100;SDS011;62462;52.530;21.682;2023-12-29T12:40:47;5.18;;;2.75;;
74100;SDS011;62462;52.530;21.682;2023-12-29T12:43:13;5.68;;;2.80;;
74100;SDS011;62462;52.530;21.682;2023-12-29T12:45:46;5.97;;;3.22;;
74100;SDS011;62462;52.530;21.682;2023-12-29T12:50:46;4.97;;;3.30;;
74100;SDS011;62462;52.530;21.682;2023-12-29T12:53:12;5.75;;;3.03;;
74100;SDS011;62462;52.530;21.682;2023-12-29T12:55:49;8.68;;;3.47;;
74100;SDS011;62462;52.530;21.682;2023-12-29T12:58:16;7.90;;;3.40;;
74100;SDS011;62462;52.530;21.682;2023-12-29T13:00:43;5.22;;;3.08;;
74100;SDS011;62462;52.530;21.682;2023-12-29T13:03:10;6.45;;;3.70;;
74100;SDS011;62462;52.530;21.682;2023-12-29T13:05:36;7.88;;;4.30;;
74100;SDS011;62462;52.530;21.682;2023-12-29T13:08:03;6.50;;;3.70;;
74100;SDS011;62462;52.530;21.682;2023-12-29T13:10:30;6.97;;;3.67;;
74100;SDS011;62462;52.530;21.682;2023-12-29T13:12:56;6.97;;;3.38;;
74100;SDS011;62462;52.530;21.682;2023-12-29T13:15:22;7.30;;;3.58;;
74100;SDS011;62462;52.530;21.682;2023-12-29T13:17:54;5.95;;;3.25;;
74100;SDS011;62462;52.530;21.682;2023-12-29T13:20:21;11.23;;;4.53;;
74100;SDS011;62462;52.530;21.682;2023-12-29T13:22:47;7.78;;;3.97;;
74100;SDS011;62462;52.530;21.682;2023-12-29T13:25:34;9.55;;;4.43;;
74100;SDS011;62462;52.530;21.682;2023-12-29T13:28:00;6.70;;;3.22;;
74100;SDS011;62462;52.530;21.682;2023-12-29T13:30:28;6.97;;;3.63;;
74100;SDS011;62462;52.530;21.682;2023-12-29T13:32:54;7.15;;;3.50;;
74100;SDS011;62462;52.530;21.682;2023-12-29T13:35:25;8.52;;;4.30;;
74100;SDS011;62462;52.530;21.682;2023-12-29T13:43:10;10.75;;;4.68;;
74100;SDS011;62462;52.530;21.682;2023-12-29T13:45:40;8.93;;;3.92;;
74100;SDS011;62462;52.530;21.682;2023-12-29T13:48:07;7.97;;;4.13;;
74100;SDS011;62462;52.530;21.682;2023-12-29T13:50:34;7.18;;;4.05;;
74100;SDS011;62462;52.530;21.682;2023-12-29T13:53:00;7.05;;;4.00;;
74100;SDS011;62462;52.530;21.682;2023-12-29T13:55:26;8.38;;;4.15;;
74100;SDS011;62462;52.530;21.682;2023-12-29T13:57:51;7.90;;;3.97;;
74100;SDS011;62462;52.530;21.682;2023-12-29T14:00:22;9.75;;;3.83;;
74100;SDS011;62462;52.530;21.682;2023-12-29T14:08:00;8.68;;;4.13;;
74100;SDS011;62462;52.530;21.682;2023-12-29T14:10:30;8.20;;;4.07;;
74100;SDS011;62462;52.530;21.682;2023-12-29T14:13:17;8.68;;;4.15;;
74100;SDS011;62462;52.530;21.682;2023-12-29T14:15:43;8.70;;;4.55;;
74100;SDS011;62462;52.530;21.682;2023-12-29T14:20:40;10.27;;;4.63;;
74100;SDS011;62462;52.530;21.682;2023-12-29T14:23:06;9.68;;;4.30;;
74100;SDS011;62462;52.530;21.682;2023-12-29T14:25:33;9.63;;;4.30;;
74100;SDS011;62462;52.530;21.682;2023-12-29T14:28:02;10.77;;;4.10;;
74100;SDS011;62462;52.530;21.682;2023-12-29T14:30:28;8.90;;;4.35;;
74100;SDS011;62462;52.530;21.682;2023-12-29T14:32:59;7.28;;;4.18;;
74100;SDS011;62462;52.530;21.682;2023-12-29T14:35:25;10.27;;;4.57;;
74100;SDS011;62462;52.530;21.682;2023-12-29T14:37:51;9.77;;;4.15;;
74100;SDS011;62462;52.530;21.682;2023-12-29T14:40:16;8.18;;;4.35;;
74100;SDS011;62462;52.530;21.682;2023-12-29T14:42:42;7.07;;;3.80;;
74100;SDS011;62462;52.530;21.682;2023-12-29T14:45:08;8.75;;;3.78;;
74100;SDS011;62462;52.530;21.682;2023-12-29T14:47:34;8.60;;;4.00;;
74100;SDS011;62462;52.530;21.682;2023-12-29T14:50:01;6.22;;;3.28;;
74100;SDS011;62462;52.530;21.682;2023-12-29T14:52:26;9.93;;;4.03;;
74100;SDS011;62462;52.530;21.682;2023-12-29T14:54:52;8.63;;;3.97;;
74100;SDS011;62462;52.530;21.682;2023-12-29T14:57:18;7.88;;;3.80;;
74100;SDS011;62462;52.530;21.682;2023-12-29T14:59:43;9.10;;;3.90;;
74100;SDS011;62462;52.530;21.682;2023-12-29T15:02:09;7.78;;;3.83;;
74100;SDS011;62462;52.530;21.682;2023-12-29T15:04:35;8.32;;;4.85;;